createdAt,value
2023-11-03T00:00:35.864Z,97464.06
2023-11-03T00:03:07.321Z,97466.78
2023-11-03T00:05:36.736Z,97475.50
2023-11-03T00:08:05.058Z,97461.75
2023-11-03T00:10:32.266Z,97480.84
2023-11-03T00:13:00.392Z,97481.28
2023-11-03T00:15:27.378Z,97480.41
2023-11-03T00:17:54.986Z,97499.09
2023-11-03T00:20:22.310Z,97482.25
2023-11-03T00:22:52.242Z,97521.25
2023-11-03T00:25:19.154Z,97528.69
2023-11-03T00:27:48.144Z,97534.09
2023-11-03T00:30:15.756Z,97519.16
2023-11-03T00:32:43.104Z,97517.91
2023-11-03T00:35:10.844Z,97492.78
2023-11-03T00:37:40.560Z,97524.13
2023-11-03T00:40:13.183Z,97518.94
2023-11-03T00:42:41.189Z,97519.34
2023-11-03T00:45:08.550Z,97518.75
2023-11-03T00:47:35.764Z,97522.84
2023-11-03T00:50:03.286Z,97528.66
2023-11-03T00:52:30.590Z,97529.50
2023-11-03T00:54:57.679Z,97533.63
2023-11-03T00:57:24.768Z,97495.03
2023-11-03T00:59:51.710Z,97528.88
2023-11-03T01:02:19.486Z,97517.25
2023-11-03T01:04:47.302Z,97536.16
2023-11-03T01:07:14.745Z,97526.41
2023-11-03T01:09:42.803Z,97533.00
2023-11-03T01:12:10.216Z,97530.09
2023-11-03T01:14:37.229Z,97541.25
2023-11-03T01:17:06.242Z,97548.13
2023-11-03T01:19:33.282Z,97529.03
2023-11-03T01:22:00.981Z,97538.56
2023-11-03T01:24:28.434Z,97528.22
2023-11-03T01:26:55.580Z,97537.97
2023-11-03T01:29:22.763Z,97522.41
2023-11-03T01:31:50.119Z,97536.72
2023-11-03T01:34:17.504Z,97527.59
2023-11-03T01:36:44.762Z,97525.34
2023-11-03T01:39:12.046Z,97513.53
2023-11-03T01:41:39.180Z,97524.69
2023-11-03T01:44:08.486Z,97509.16
2023-11-03T01:46:39.099Z,97514.31
2023-11-03T01:49:09.627Z,97526.75
2023-11-03T01:51:37.458Z,97517.84
2023-11-03T01:54:05.785Z,97511.03
2023-11-03T01:56:36.157Z,97523.00
2023-11-03T01:59:06.584Z,97526.50
2023-11-03T02:01:36.152Z,97531.69
2023-11-03T02:04:03.590Z,97535.81
2023-11-03T02:06:30.768Z,97550.97
2023-11-03T02:08:57.736Z,97546.56
2023-11-03T02:11:29.820Z,97561.06
2023-11-03T02:13:57.969Z,97560.63
2023-11-03T02:16:28.620Z,97566.22
2023-11-03T02:18:55.854Z,97568.09
2023-11-03T02:21:22.963Z,97563.88
2023-11-03T02:23:49.934Z,97581.47
2023-11-03T02:26:16.880Z,97554.88
2023-11-03T02:28:43.904Z,97582.22
2023-11-03T02:31:10.954Z,97574.94
2023-11-03T02:33:38.718Z,97565.16
2023-11-03T02:36:06.316Z,97561.75
2023-11-03T02:38:33.538Z,97566.09
2023-11-03T02:41:00.484Z,97567.06
2023-11-03T02:43:27.582Z,97563.34
2023-11-03T02:45:54.576Z,97567.47
2023-11-03T02:48:21.744Z,97567.84
2023-11-03T02:50:48.741Z,97561.84
2023-11-03T02:53:16.003Z,97556.66
2023-11-03T02:55:43.007Z,97556.88
2023-11-03T02:58:10.136Z,97559.19
2023-11-03T03:00:38.094Z,97551.56
2023-11-03T03:03:07.227Z,97551.19
2023-11-03T03:05:37.640Z,97554.69
2023-11-03T03:08:05.841Z,97543.06
2023-11-03T03:10:33.952Z,97557.75
2023-11-03T03:13:03.530Z,97553.88
2023-11-03T03:15:31.368Z,97562.38
2023-11-03T03:17:58.461Z,97553.91
2023-11-03T03:20:25.979Z,97544.97
2023-11-03T03:22:53.338Z,97561.09
2023-11-03T03:25:21.740Z,97563.94
2023-11-03T03:27:48.790Z,97549.53
2023-11-03T03:30:15.874Z,97551.34
2023-11-03T03:32:43.954Z,97546.09
2023-11-03T03:35:10.985Z,97558.63
2023-11-03T03:37:37.953Z,97559.44
2023-11-03T03:40:07.185Z,97570.25
2023-11-03T03:42:35.165Z,97561.38
2023-11-03T03:45:02.137Z,97566.09
2023-11-03T03:47:29.291Z,97565.06
2023-11-03T03:49:57.048Z,97555.97
2023-11-03T03:52:24.349Z,97569.66
2023-11-03T03:54:51.287Z,97572.41
2023-11-03T03:57:18.296Z,97587.72
2023-11-03T03:59:45.305Z,97567.84
2023-11-03T04:02:12.662Z,97576.94
2023-11-03T04:04:39.853Z,97577.97
2023-11-03T04:07:06.949Z,97571.13
2023-11-03T04:09:33.978Z,97573.44
2023-11-03T04:12:00.957Z,97561.81
2023-11-03T04:14:28.077Z,97565.75
2023-11-03T04:16:55.034Z,97559.53
2023-11-03T04:19:22.080Z,97567.34
2023-11-03T04:21:49.273Z,97569.47
2023-11-03T04:24:16.215Z,97563.47
2023-11-03T04:26:43.414Z,97566.31
2023-11-03T04:29:10.305Z,97572.34
2023-11-03T04:31:37.318Z,97573.22
2023-11-03T04:34:05.172Z,97569.66
2023-11-03T04:36:32.225Z,97585.59
2023-11-03T04:38:59.179Z,97584.59
2023-11-03T04:41:26.235Z,97589.97
2023-11-03T04:43:53.236Z,97590.53
2023-11-03T04:46:20.242Z,97584.72
2023-11-03T04:48:47.385Z,97581.97
2023-11-03T04:51:15.157Z,97571.34
2023-11-03T04:53:43.601Z,97582.97
2023-11-03T04:56:11.005Z,97551.88
2023-11-03T04:58:38.087Z,97579.69
2023-11-03T05:01:05.218Z,97584.06
2023-11-03T05:03:33.234Z,97587.34
2023-11-03T05:06:00.612Z,97584.50
2023-11-03T05:08:27.861Z,97585.72
2023-11-03T05:10:54.875Z,97576.00
2023-11-03T05:13:22.692Z,97588.22
2023-11-03T05:15:49.929Z,97565.75
2023-11-03T05:18:16.991Z,97589.22
2023-11-03T05:20:44.070Z,97588.59
2023-11-03T05:23:11.054Z,97578.41
2023-11-03T05:25:38.189Z,97595.00
2023-11-03T05:28:05.371Z,97593.97
2023-11-03T05:30:32.452Z,97597.44
2023-11-03T05:32:59.916Z,97617.75
2023-11-03T05:35:29.271Z,97603.19
2023-11-03T05:37:57.374Z,97603.84
2023-11-03T05:40:24.534Z,97606.97
2023-11-03T05:42:51.744Z,97611.72
2023-11-03T05:45:18.793Z,97608.00
2023-11-03T05:50:13.587Z,97617.94
2023-11-03T05:52:40.662Z,97631.41
2023-11-03T05:55:08.590Z,97620.84
2023-11-03T05:57:35.549Z,97632.03
2023-11-03T06:00:09.804Z,97640.28
2023-11-03T06:02:39.920Z,97630.81
2023-11-03T06:05:08.078Z,97642.22
2023-11-03T06:07:37.861Z,97642.16
2023-11-03T06:10:05.407Z,97648.34
2023-11-03T06:12:32.472Z,97646.75
2023-11-03T06:14:59.585Z,97647.97
2023-11-03T06:17:26.590Z,97646.56
2023-11-03T06:19:53.590Z,97651.94
2023-11-03T06:22:21.207Z,97644.47
2023-11-03T06:24:48.250Z,97650.66
2023-11-03T06:27:15.317Z,97655.69
2023-11-03T06:29:42.443Z,97624.25
2023-11-03T06:32:09.424Z,97635.16
2023-11-03T06:34:36.537Z,97667.25
2023-11-03T06:37:03.576Z,97675.56
2023-11-03T06:39:31.734Z,97665.59
2023-11-03T06:41:58.789Z,97681.34
2023-11-03T06:44:25.913Z,97682.81
2023-11-03T06:46:52.896Z,97674.00
2023-11-03T06:49:19.947Z,97706.16
2023-11-03T06:51:47.016Z,97686.09
2023-11-03T06:54:14.063Z,97692.91
2023-11-03T06:56:43.262Z,97680.91
2023-11-03T06:59:10.614Z,97691.66
2023-11-03T07:01:37.843Z,97659.66
2023-11-03T07:04:05.758Z,97676.75
2023-11-03T07:06:33.073Z,97685.06
2023-11-03T07:09:00.441Z,97684.22
2023-11-03T07:11:27.430Z,97685.28
2023-11-03T07:13:54.612Z,97685.66
2023-11-03T07:16:22.164Z,97690.00
2023-11-03T07:18:49.613Z,97697.28
2023-11-03T07:21:17.169Z,97684.88
2023-11-03T07:23:44.389Z,97696.47
2023-11-03T07:26:14.366Z,97688.66
2023-11-03T07:28:43.423Z,97696.84
2023-11-03T07:31:12.685Z,97671.03
2023-11-03T07:33:43.709Z,97701.41
2023-11-03T07:36:11.605Z,97696.47
2023-11-03T07:38:39.397Z,97703.69
2023-11-03T07:41:09.363Z,97696.97
2023-11-03T07:43:39.426Z,97709.03
2023-11-03T07:46:06.818Z,97696.41
2023-11-03T07:48:33.965Z,97702.34
2023-11-03T07:51:01.182Z,97703.81
2023-11-03T07:53:28.304Z,97717.09
2023-11-03T07:55:56.402Z,97711.97
2023-11-03T07:58:23.493Z,97718.16
2023-11-03T08:00:50.965Z,97726.69
2023-11-03T08:03:18.782Z,97737.41
2023-11-03T08:05:46.224Z,97729.72
2023-11-03T08:08:15.303Z,97732.84
2023-11-03T08:10:43.111Z,97737.84
2023-11-03T08:13:10.216Z,97742.59
2023-11-03T08:15:38.420Z,97740.47
2023-11-03T08:18:09.265Z,97737.41
2023-11-03T08:20:36.384Z,97744.00
2023-11-03T08:23:04.347Z,97754.56
2023-11-03T08:25:31.975Z,97760.16
2023-11-03T08:27:59.494Z,97753.28
2023-11-03T08:30:26.981Z,97762.84
2023-11-03T08:32:54.678Z,97776.34
2023-11-03T08:35:23.566Z,97775.13
2023-11-03T08:37:56.617Z,97777.38
2023-11-03T08:40:23.785Z,97789.16
2023-11-03T08:42:51.734Z,97795.94
2023-11-03T08:45:20.872Z,97802.22
2023-11-03T08:47:48.371Z,97789.03
2023-11-03T08:50:17.202Z,97811.78
2023-11-03T08:52:45.887Z,97805.38
2023-11-03T08:55:14.838Z,97809.28
2023-11-03T08:57:43.436Z,97806.78
2023-11-03T09:00:13.197Z,97809.19
2023-11-03T09:02:42.258Z,97807.47
2023-11-03T09:05:12.115Z,97828.22
2023-11-03T09:07:40.970Z,97826.56
2023-11-03T09:10:11.540Z,97836.66
2023-11-03T09:12:42.358Z,97846.25
2023-11-03T09:15:10.091Z,97855.13
2023-11-03T09:17:38.444Z,97860.59
2023-11-03T09:20:08.841Z,97865.78
2023-11-03T09:22:38.825Z,97860.50
2023-11-03T09:25:07.663Z,97874.22
2023-11-03T09:27:35.201Z,97857.13
2023-11-03T09:30:06.508Z,97872.28
2023-11-03T09:32:34.168Z,97873.72
2023-11-03T09:35:01.426Z,97880.00
2023-11-03T09:37:28.594Z,97895.22
2023-11-03T09:39:56.031Z,97880.94
2023-11-03T09:42:24.267Z,97892.81
2023-11-03T09:44:52.020Z,97908.38
2023-11-03T09:47:19.107Z,97903.94
2023-11-03T09:49:47.030Z,97908.41
2023-11-03T09:52:15.498Z,97909.41
2023-11-03T09:54:42.836Z,97918.84
2023-11-03T09:57:12.795Z,97915.31
2023-11-03T09:59:41.424Z,97925.41
2023-11-03T10:02:16.351Z,97921.31
2023-11-03T10:04:43.701Z,97911.34
2023-11-03T10:07:12.977Z,97902.13
2023-11-03T10:09:41.466Z,97919.63
2023-11-03T10:12:16.326Z,97934.19
2023-11-03T10:14:45.322Z,97901.09
2023-11-03T10:17:12.805Z,97939.34
2023-11-03T10:19:40.084Z,97939.00
2023-11-03T10:22:10.672Z,97934.63
2023-11-03T10:24:39.744Z,97943.22
2023-11-03T10:27:07.961Z,97940.19
2023-11-03T10:29:35.709Z,97943.91
2023-11-03T10:32:02.695Z,97907.88
2023-11-03T10:34:30.660Z,97933.47
2023-11-03T10:36:58.964Z,97926.69
2023-11-03T10:39:26.507Z,97923.94
2023-11-03T10:41:56.307Z,97929.59
2023-11-03T10:44:27.120Z,97929.97
2023-11-03T10:47:00.051Z,97930.63
2023-11-03T10:49:33.076Z,97929.78
2023-11-03T10:52:29.711Z,97939.97
2023-11-03T10:55:26.921Z,97934.91
2023-11-03T10:57:58.502Z,97936.75
2023-11-03T11:01:10.414Z,97937.50
2023-11-03T11:03:53.878Z,97927.41
2023-11-03T11:06:35.058Z,97912.94
2023-11-03T11:09:10.115Z,97932.22
2023-11-03T11:11:40.262Z,97940.38
2023-11-03T11:14:26.196Z,97931.56
2023-11-03T11:16:55.615Z,97937.72
2023-11-03T11:19:53.300Z,97921.19
2023-11-03T11:22:22.842Z,97930.47
2023-11-03T11:24:53.231Z,97903.47
2023-11-03T11:27:23.926Z,97929.47
2023-11-03T11:30:02.846Z,97928.94
2023-11-03T11:32:29.952Z,97934.06
2023-11-03T11:34:58.720Z,97929.41
2023-11-03T11:37:31.739Z,97934.19
2023-11-03T11:40:05.167Z,97936.31
2023-11-03T11:42:37.065Z,97933.09
2023-11-03T11:45:06.732Z,97935.34
2023-11-03T11:47:34.106Z,97941.06
2023-11-03T11:50:02.068Z,97934.41
2023-11-03T11:52:29.957Z,97925.06
2023-11-03T11:54:59.424Z,97939.19
2023-11-03T11:57:28.764Z,97946.81
2023-11-03T11:59:56.877Z,97944.00
2023-11-03T12:02:25.717Z,97949.97
2023-11-03T12:04:57.038Z,97941.13
2023-11-03T12:07:27.295Z,97947.97
2023-11-03T12:09:55.887Z,97977.56
2023-11-03T12:12:27.390Z,97983.47
2023-11-03T12:14:56.693Z,97962.56
2023-11-03T12:17:23.739Z,97974.50
2023-11-03T12:19:52.526Z,97985.75
2023-11-03T12:22:27.352Z,97988.88
2023-11-03T12:24:57.026Z,97986.06
2023-11-03T12:27:25.289Z,97973.53
2023-11-03T12:30:03.543Z,98006.38
2023-11-03T12:32:35.499Z,98000.38
2023-11-03T12:35:02.818Z,98001.16
2023-11-03T12:37:30.328Z,97991.50
2023-11-03T12:39:58.081Z,97991.06
2023-11-03T12:42:27.008Z,97989.81
2023-11-03T12:44:53.954Z,98002.00
2023-11-03T12:47:39.890Z,98000.00
2023-11-03T12:50:22.162Z,97999.78
2023-11-03T12:52:59.576Z,97993.78
2023-11-03T12:55:29.177Z,97996.38
2023-11-03T12:57:57.591Z,98002.13
2023-11-03T13:00:28.765Z,98008.19
2023-11-03T13:02:56.439Z,97995.25
2023-11-03T13:05:23.785Z,98001.59
2023-11-03T13:07:55.925Z,98012.22
2023-11-03T13:10:28.873Z,98004.72
2023-11-03T13:12:56.902Z,98017.19
2023-11-03T13:15:24.090Z,98006.78
2023-11-03T13:17:52.048Z,97997.22
2023-11-03T13:20:19.860Z,98011.00
2023-11-03T13:22:50.596Z,97993.72
2023-11-03T13:25:19.625Z,98009.44
2023-11-03T13:27:47.295Z,98019.00
2023-11-03T13:30:14.497Z,97960.31
2023-11-03T13:32:50.464Z,97990.38
2023-11-03T13:35:22.532Z,98017.47
2023-11-03T13:37:50.721Z,97971.25
2023-11-03T13:40:19.944Z,98028.50
2023-11-03T13:42:47.087Z,98044.13
2023-11-03T13:45:14.548Z,98042.19
2023-11-03T13:47:42.370Z,98050.88
2023-11-03T13:50:20.644Z,98050.06
2023-11-03T13:52:49.843Z,98051.78
2023-11-03T13:55:18.436Z,98051.13
2023-11-03T13:57:45.658Z,98049.84
2023-11-03T14:00:16.764Z,98058.03
2023-11-03T14:02:44.677Z,98055.41
2023-11-03T14:05:12.697Z,98040.81
2023-11-03T14:07:43.198Z,98057.56
2023-11-03T14:10:10.885Z,98043.44
2023-11-03T14:12:42.191Z,98050.09
2023-11-03T14:15:11.433Z,98050.44
2023-11-03T14:17:40.593Z,98063.50
2023-11-03T14:20:11.373Z,98054.56
2023-11-03T14:22:39.860Z,98064.59
2023-11-03T14:25:07.505Z,98054.38
2023-11-03T14:27:35.621Z,98080.09
2023-11-03T14:30:03.101Z,98077.38
2023-11-03T14:32:30.034Z,98087.63
2023-11-03T14:34:57.280Z,98086.47
2023-11-03T14:37:24.793Z,98084.16
2023-11-03T14:39:51.790Z,98087.31
2023-11-03T14:42:19.338Z,98087.66
2023-11-03T14:44:47.168Z,98077.59
2023-11-03T14:47:14.168Z,98083.97
2023-11-03T14:49:42.988Z,98084.34
2023-11-03T14:52:12.114Z,98086.38
2023-11-03T14:54:39.120Z,98076.97
2023-11-03T14:57:06.141Z,98065.84
2023-11-03T14:59:35.202Z,98070.41
2023-11-03T15:02:05.257Z,98079.22
2023-11-03T15:04:34.046Z,98074.84
2023-11-03T15:07:01.174Z,98085.19
2023-11-03T15:09:28.850Z,98081.91
2023-11-03T15:11:56.626Z,98065.59
2023-11-03T15:14:23.658Z,98073.44
2023-11-03T15:16:53.445Z,98072.25
2023-11-03T15:19:20.554Z,98062.63
2023-11-03T15:21:47.716Z,98078.22
2023-11-03T15:24:14.727Z,98076.19
2023-11-03T15:26:42.130Z,98078.50
2023-11-03T15:29:09.092Z,98032.97
2023-11-03T15:31:38.224Z,98070.91
2023-11-03T15:34:05.367Z,98090.25
2023-11-03T15:36:32.467Z,98097.44
2023-11-03T15:39:04.937Z,98100.03
2023-11-03T15:41:31.956Z,98105.75
2023-11-03T15:44:00.911Z,98111.69
2023-11-03T15:46:27.893Z,98133.25
2023-11-03T15:48:55.009Z,98138.66
2023-11-03T15:51:23.711Z,98142.38
2023-11-03T15:53:54.246Z,98142.94
2023-11-03T15:56:21.408Z,98135.16
2023-11-03T15:58:48.951Z,98116.69
2023-11-03T16:01:19.061Z,98152.53
2023-11-03T16:03:47.242Z,98160.25
2023-11-03T16:06:14.474Z,98161.06
2023-11-03T16:08:41.598Z,98162.47
2023-11-03T16:11:10.289Z,98169.69
2023-11-03T16:13:37.383Z,98172.31
2023-11-03T16:16:06.730Z,98171.97
2023-11-03T16:18:34.637Z,98158.97
2023-11-03T16:21:01.894Z,98161.00
2023-11-03T16:23:28.981Z,98164.16
2023-11-03T16:25:56.852Z,98188.13
2023-11-03T16:28:25.916Z,98186.38
2023-11-03T16:30:53.080Z,98193.91
2023-11-03T16:33:20.347Z,98195.47
2023-11-03T16:35:47.506Z,98197.88
2023-11-03T16:38:16.180Z,98206.31
2023-11-03T16:40:44.349Z,98194.94
2023-11-03T16:43:11.374Z,98204.16
2023-11-03T16:45:39.627Z,98210.44
2023-11-03T16:48:17.564Z,98210.97
2023-11-03T16:50:51.325Z,98224.09
2023-11-03T16:53:19.568Z,98202.63
2023-11-03T16:55:51.290Z,98215.66
2023-11-03T16:58:19.005Z,98232.03
2023-11-03T17:00:49.622Z,98226.84
2023-11-03T17:03:17.551Z,98242.47
2023-11-03T17:05:44.976Z,98249.25
2023-11-03T17:08:12.640Z,98230.28
2023-11-03T17:10:40.322Z,98242.53
2023-11-03T17:13:07.806Z,98228.66
2023-11-03T17:15:36.003Z,98244.88
2023-11-03T17:18:04.637Z,98255.44
2023-11-03T17:20:31.747Z,98251.38
2023-11-03T17:23:02.214Z,98247.78
2023-11-03T17:25:29.560Z,98242.00
2023-11-03T17:27:56.525Z,98251.38
2023-11-03T17:30:23.629Z,98223.50
2023-11-03T17:32:52.242Z,98249.34
2023-11-03T17:35:24.813Z,98247.41
2023-11-03T17:37:57.285Z,98252.59
2023-11-03T17:40:26.184Z,98246.84
2023-11-03T17:42:53.433Z,98212.81
2023-11-03T17:45:22.937Z,98220.59
2023-11-03T17:47:51.647Z,98233.97
2023-11-03T17:50:20.418Z,98235.84
2023-11-03T17:52:49.129Z,98224.31
2023-11-03T17:55:16.643Z,98236.03
2023-11-03T17:57:45.851Z,98212.91
2023-11-03T18:00:16.382Z,98227.41
2023-11-03T18:02:44.125Z,98222.41
2023-11-03T18:05:11.769Z,98240.63
2023-11-03T18:07:41.708Z,98241.91
2023-11-03T18:10:12.638Z,98226.63
2023-11-03T18:12:41.100Z,98258.88
2023-11-03T18:15:11.343Z,98252.56
2023-11-03T18:17:39.850Z,98252.34
2023-11-03T18:20:12.988Z,98232.16
2023-11-03T18:22:41.468Z,98243.25
2023-11-03T18:25:10.633Z,98235.59
2023-11-03T18:27:38.824Z,98230.91
2023-11-03T18:30:11.637Z,98235.94
2023-11-03T18:32:40.575Z,98242.00
2023-11-03T18:35:10.123Z,98246.88
2023-11-03T18:37:38.316Z,98247.03
2023-11-03T18:40:08.228Z,98244.22
2023-11-03T18:42:35.755Z,98242.34
2023-11-03T18:45:03.113Z,98219.41
2023-11-03T18:47:30.246Z,98226.75
2023-11-03T18:52:27.586Z,98231.59
2023-11-03T19:00:24.936Z,98239.00
2023-11-03T19:07:06.731Z,98221.59
2023-11-03T19:08:01.591Z,98222.91
2023-11-03T19:10:28.651Z,98233.66
2023-11-03T19:12:55.680Z,98235.69
2023-11-03T19:15:22.945Z,98223.59
2023-11-03T19:17:50.372Z,98204.53
2023-11-03T19:20:17.320Z,98217.94
2023-11-03T19:22:44.272Z,98243.41
2023-11-03T19:25:14.014Z,98245.44
2023-11-03T19:27:40.953Z,98227.00
2023-11-03T19:30:08.996Z,98236.38
2023-11-03T19:32:36.085Z,98255.50
2023-11-03T19:35:03.443Z,98248.97
2023-11-03T19:37:31.416Z,98248.13
2023-11-03T19:39:58.466Z,98261.72
2023-11-03T19:42:25.432Z,98274.31
2023-11-03T19:44:52.389Z,98269.28
2023-11-03T19:47:19.564Z,98261.56
2023-11-03T19:49:46.711Z,98259.19
2023-11-03T19:52:16.064Z,98280.69
2023-11-03T19:54:43.139Z,98264.41
2023-11-03T19:57:10.153Z,98279.00
2023-11-03T19:59:37.302Z,98278.69
2023-11-03T20:02:05.483Z,98277.53
2023-11-03T20:04:32.596Z,98266.44
2023-11-03T20:07:00.967Z,98279.34
2023-11-03T20:09:27.950Z,98266.63
2023-11-03T20:11:55.050Z,98257.41
2023-11-03T20:14:21.993Z,98267.66
2023-11-03T20:16:50.112Z,98272.19
2023-11-03T20:19:17.499Z,98279.72
2023-11-03T20:21:44.665Z,98280.56
2023-11-03T20:24:13.376Z,98291.81
2023-11-03T20:26:40.426Z,98269.84
2023-11-03T20:29:09.633Z,98299.53
2023-11-03T20:31:36.803Z,98297.00
2023-11-03T20:34:03.921Z,98291.31
2023-11-03T20:36:30.961Z,98281.28
2023-11-03T20:38:59.515Z,98284.59
2023-11-03T20:41:26.477Z,98283.78
2023-11-03T20:43:53.419Z,98269.53
2023-11-03T20:46:20.512Z,98290.31
2023-11-03T20:48:47.641Z,98286.28
2023-11-03T20:51:18.223Z,98288.13
2023-11-03T20:53:45.533Z,98278.72
2023-11-03T20:56:12.495Z,98281.28
2023-11-03T20:58:39.497Z,98283.59
2023-11-03T21:01:07.780Z,98286.63
2023-11-03T21:03:35.094Z,98271.38
2023-11-03T21:06:02.320Z,98270.69
2023-11-03T21:08:29.620Z,98267.69
2023-11-03T21:10:56.593Z,98281.28
2023-11-03T21:13:23.663Z,98272.22
2023-11-03T21:15:50.719Z,98285.97
2023-11-03T21:18:18.590Z,98281.41
2023-11-03T21:20:45.817Z,98261.50
2023-11-03T21:23:13.295Z,98292.16
2023-11-03T21:25:40.275Z,98298.88
2023-11-03T21:28:07.691Z,98314.47
2023-11-03T21:30:36.701Z,98311.44
2023-11-03T21:33:05.059Z,98310.28
2023-11-03T21:35:32.244Z,98307.59
2023-11-03T21:37:59.215Z,98312.78
2023-11-03T21:40:26.127Z,98320.84
2023-11-03T21:42:53.320Z,98315.31
2023-11-03T21:45:20.358Z,98309.44
2023-11-03T21:47:50.482Z,98310.28
2023-11-03T21:50:24.320Z,98326.38
2023-11-03T21:52:52.434Z,98333.44
2023-11-03T21:55:19.749Z,98311.59
2023-11-03T21:57:50.194Z,98313.94
2023-11-03T22:00:18.718Z,98320.31
2023-11-03T22:02:46.181Z,98296.84
2023-11-03T22:05:13.571Z,98323.84
2023-11-03T22:07:40.648Z,98309.41
2023-11-03T22:10:08.764Z,98293.31
2023-11-03T22:12:35.984Z,98303.25
2023-11-03T22:15:03.843Z,98308.75
2023-11-03T22:17:30.833Z,98313.63
2023-11-03T22:19:58.422Z,98306.94
2023-11-03T22:22:25.400Z,98329.41
2023-11-03T22:24:52.438Z,98290.50
2023-11-03T22:27:19.464Z,98318.84
2023-11-03T22:29:47.313Z,98303.06
2023-11-03T22:32:16.059Z,98310.59
2023-11-03T22:34:44.002Z,98321.63
2023-11-03T22:37:11.151Z,98320.41
2023-11-03T22:39:38.145Z,98297.28
2023-11-03T22:42:05.248Z,98324.75
2023-11-03T22:44:32.282Z,98321.06
2023-11-03T22:46:59.246Z,98322.41
2023-11-03T22:49:26.390Z,98318.06
2023-11-03T22:51:53.396Z,98323.59
2023-11-03T22:54:21.020Z,98325.91
2023-11-03T22:56:48.143Z,98330.09
2023-11-03T22:59:15.186Z,98329.75
2023-11-03T23:01:43.152Z,98328.25
2023-11-03T23:04:11.382Z,98319.81
2023-11-03T23:06:38.710Z,98320.16
2023-11-03T23:09:06.645Z,98320.31
2023-11-03T23:11:33.618Z,98320.00
2023-11-03T23:14:00.924Z,98319.31
2023-11-03T23:16:28.144Z,98275.53
2023-11-03T23:18:56.203Z,98317.50
2023-11-03T23:21:23.253Z,98315.63
2023-11-03T23:23:53.148Z,98325.00
2023-11-03T23:26:20.303Z,98334.34
2023-11-03T23:28:47.274Z,98335.03
2023-11-03T23:31:14.408Z,98329.16
2023-11-03T23:33:41.476Z,98333.19
2023-11-03T23:36:08.995Z,98327.19
2023-11-03T23:38:36.057Z,98342.91
2023-11-03T23:41:03.677Z,98339.88
2023-11-03T23:43:30.594Z,98335.00
2023-11-03T23:46:02.183Z,98336.53
2023-11-03T23:48:31.286Z,98338.84
2023-11-03T23:50:58.304Z,98342.53
2023-11-03T23:53:25.321Z,98335.31
2023-11-03T23:55:52.273Z,98302.28
2023-11-03T23:58:20.849Z,98331.34
